createdAt,value
2022-08-30T00:01:31.982Z,13.35
2022-08-30T00:03:59.722Z,13.18
2022-08-30T00:06:28.569Z,13.17
2022-08-30T00:08:56.052Z,13.35
2022-08-30T00:11:26.752Z,13.19
2022-08-30T00:13:55.252Z,13.21
2022-08-30T00:16:23.389Z,12.95
2022-08-30T00:18:50.131Z,13.15
2022-08-30T00:21:16.881Z,13.12
2022-08-30T00:23:43.626Z,13.07
2022-08-30T00:26:10.064Z,13.09
2022-08-30T00:28:37.306Z,13.04
2022-08-30T00:31:04.395Z,13.05
2022-08-30T00:33:30.889Z,12.91
2022-08-30T00:35:57.613Z,13.02
2022-08-30T00:38:24.298Z,13.29
2022-08-30T00:40:52.123Z,13.32
2022-08-30T00:43:25.746Z,13.24
2022-08-30T00:45:55.069Z,13.12
2022-08-30T00:48:21.647Z,13.07
2022-08-30T00:50:56.374Z,13.07
2022-08-30T00:53:26.975Z,13.01
2022-08-30T00:55:54.741Z,12.86
2022-08-30T00:58:27.846Z,13.00
2022-08-30T01:00:56.684Z,13.11
2022-08-30T01:03:23.314Z,12.87
2022-08-30T01:05:51.579Z,12.99
2022-08-30T01:08:20.402Z,12.92
2022-08-30T01:10:47.005Z,13.30
2022-08-30T01:13:14.831Z,13.04
2022-08-30T01:15:44.200Z,13.10
2022-08-30T01:18:14.197Z,12.89
2022-08-30T01:21:19.119Z,13.37
2022-08-30T01:23:48.083Z,13.19
2022-08-30T01:26:15.892Z,13.13
2022-08-30T01:28:45.066Z,13.03
2022-08-30T01:31:11.616Z,12.75
2022-08-30T01:33:38.486Z,12.57
2022-08-30T01:36:08.137Z,12.82
2022-08-30T01:38:41.759Z,12.54
2022-08-30T01:41:20.331Z,12.71
2022-08-30T01:43:47.797Z,12.44
2022-08-30T01:46:16.692Z,12.75
2022-08-30T01:48:51.957Z,12.90
2022-08-30T01:51:22.331Z,12.79
2022-08-30T01:53:49.035Z,12.78
2022-08-30T01:56:15.940Z,12.72
2022-08-30T01:58:43.218Z,12.51
2022-08-30T02:01:14.042Z,12.75
2022-08-30T02:03:43.132Z,12.56
2022-08-30T02:06:13.637Z,12.77
2022-08-30T02:08:40.568Z,12.68
2022-08-30T02:11:09.371Z,12.63
2022-08-30T02:13:37.636Z,12.43
2022-08-30T02:16:06.058Z,12.55
2022-08-30T02:18:33.798Z,12.50
2022-08-30T02:21:00.913Z,12.30
2022-08-30T02:23:27.678Z,12.32
2022-08-30T02:25:54.410Z,12.15
2022-08-30T02:28:20.876Z,12.02
2022-08-30T02:30:48.106Z,11.98
2022-08-30T02:33:15.292Z,12.00
2022-08-30T02:35:41.868Z,12.14
2022-08-30T02:38:08.971Z,12.18
2022-08-30T02:40:36.165Z,12.22
2022-08-30T02:43:05.652Z,12.03
2022-08-30T02:45:32.096Z,12.16
2022-08-30T02:47:58.551Z,12.11
2022-08-30T02:50:25.510Z,12.18
2022-08-30T02:52:52.356Z,12.08
2022-08-30T02:55:20.880Z,12.12
2022-08-30T02:57:47.744Z,12.11
2022-08-30T03:00:18.092Z,12.19
2022-08-30T03:02:44.674Z,11.94
2022-08-30T03:05:13.969Z,12.01
2022-08-30T03:07:41.779Z,11.69
2022-08-30T03:10:08.753Z,11.90
2022-08-30T03:12:35.602Z,11.99
2022-08-30T03:15:06.543Z,11.87
2022-08-30T03:17:33.114Z,11.78
2022-08-30T03:20:02.100Z,11.83
2022-08-30T03:22:29.530Z,11.63
2022-08-30T03:25:00.090Z,11.94
2022-08-30T03:27:27.227Z,12.08
2022-08-30T03:29:53.823Z,12.35
2022-08-30T03:32:20.870Z,12.27
2022-08-30T03:34:47.344Z,12.36
2022-08-30T03:37:14.032Z,12.07
2022-08-30T03:39:41.012Z,12.17
2022-08-30T03:42:07.601Z,12.21
2022-08-30T03:44:35.381Z,12.08
2022-08-30T03:47:03.826Z,12.09
2022-08-30T03:49:31.284Z,11.94
2022-08-30T03:51:57.713Z,11.93
2022-08-30T03:54:24.848Z,11.92
2022-08-30T03:56:51.382Z,11.72
2022-08-30T03:59:18.262Z,11.89
2022-08-30T04:01:45.867Z,11.60
2022-08-30T04:04:12.447Z,11.50
2022-08-30T04:06:38.938Z,11.75
2022-08-30T04:09:06.092Z,11.57
2022-08-30T04:11:32.901Z,11.75
2022-08-30T04:13:59.543Z,11.68
2022-08-30T04:16:26.413Z,11.77
2022-08-30T04:18:53.095Z,11.66
2022-08-30T04:21:19.664Z,11.86
2022-08-30T04:23:47.273Z,11.87
2022-08-30T04:26:13.915Z,11.88
2022-08-30T04:28:40.411Z,11.67
2022-08-30T04:31:12.768Z,11.73
2022-08-30T04:33:42.063Z,11.95
2022-08-30T04:36:09.975Z,11.93
2022-08-30T04:38:39.303Z,11.77
2022-08-30T04:41:12.333Z,11.89
2022-08-30T04:43:39.891Z,12.23
2022-08-30T04:46:08.018Z,12.15
2022-08-30T04:48:35.767Z,12.01
2022-08-30T04:51:06.966Z,12.09
2022-08-30T04:53:34.421Z,12.14
2022-08-30T04:56:00.884Z,11.93
2022-08-30T04:58:27.660Z,12.17
2022-08-30T05:00:54.116Z,11.95
2022-08-30T05:03:20.643Z,12.17
2022-08-30T05:05:49.070Z,12.19
2022-08-30T05:08:20.996Z,12.33
2022-08-30T05:10:53.222Z,12.49
2022-08-30T05:13:30.347Z,12.59
2022-08-30T05:16:03.648Z,12.53
2022-08-30T05:18:30.256Z,12.61
2022-08-30T05:21:23.957Z,12.91
2022-08-30T05:23:50.537Z,12.85
2022-08-30T05:26:25.065Z,13.04
2022-08-30T05:28:51.954Z,13.14
2022-08-30T05:31:20.343Z,13.32
2022-08-30T05:33:47.843Z,13.36
2022-08-30T05:36:15.834Z,13.44
2022-08-30T05:38:43.212Z,13.50
2022-08-30T05:41:11.601Z,13.58
2022-08-30T05:43:38.829Z,13.44
2022-08-30T05:46:07.991Z,13.71
2022-08-30T05:48:35.115Z,13.80
2022-08-30T05:51:07.457Z,13.83
2022-08-30T05:53:35.122Z,13.81
2022-08-30T05:56:07.512Z,14.15
2022-08-30T05:58:34.560Z,14.14
2022-08-30T06:01:01.446Z,14.21
2022-08-30T06:03:28.947Z,14.17
2022-08-30T06:05:55.395Z,14.11
2022-08-30T06:08:21.922Z,14.36
2022-08-30T06:10:48.354Z,14.34
2022-08-30T06:13:15.252Z,14.52
2022-08-30T06:15:43.848Z,14.44
2022-08-30T06:18:11.674Z,14.43
2022-08-30T06:20:43.029Z,14.59
2022-08-30T06:23:10.504Z,14.69
2022-08-30T06:25:41.888Z,14.77
2022-08-30T06:28:09.580Z,14.79
2022-08-30T06:30:36.370Z,14.67
2022-08-30T06:33:02.856Z,14.66
2022-08-30T06:35:32.654Z,14.94
2022-08-30T06:38:02.092Z,14.84
2022-08-30T06:40:28.617Z,15.02
2022-08-30T06:42:55.046Z,15.11
2022-08-30T06:45:21.769Z,14.80
2022-08-30T06:47:48.832Z,15.45
2022-08-30T06:50:17.568Z,15.61
2022-08-30T06:52:45.437Z,15.72
2022-08-30T06:55:16.122Z,15.80
2022-08-30T06:57:42.965Z,15.81
2022-08-30T07:00:12.974Z,16.06
2022-08-30T07:02:40.226Z,15.97
2022-08-30T07:05:07.973Z,16.07
2022-08-30T07:07:35.642Z,16.43
2022-08-30T07:10:04.698Z,16.47
2022-08-30T07:12:31.131Z,16.45
2022-08-30T07:14:57.579Z,16.44
2022-08-30T07:17:42.663Z,16.59
2022-08-30T07:20:10.354Z,16.73
2022-08-30T07:22:36.794Z,16.95
2022-08-30T07:25:03.599Z,16.94
2022-08-30T07:27:30.433Z,16.95
2022-08-30T07:29:58.709Z,17.25
2022-08-30T07:32:25.639Z,17.14
2022-08-30T07:34:52.088Z,17.07
2022-08-30T07:37:18.524Z,17.19
2022-08-30T07:39:47.960Z,17.34
2022-08-30T07:42:15.175Z,17.39
2022-08-30T07:44:41.614Z,17.48
2022-08-30T07:47:08.032Z,17.57
2022-08-30T07:49:34.459Z,17.59
2022-08-30T07:52:00.870Z,17.69
2022-08-30T07:54:27.298Z,17.97
2022-08-30T07:56:55.781Z,18.13
2022-08-30T07:59:23.658Z,18.21
2022-08-30T08:01:50.208Z,18.42
2022-08-30T08:04:19.410Z,18.62
2022-08-30T08:06:46.106Z,18.61
2022-08-30T08:09:13.622Z,18.82
2022-08-30T08:11:41.401Z,18.70
2022-08-30T08:14:08.588Z,18.88
2022-08-30T08:16:36.438Z,19.01
2022-08-30T08:19:04.949Z,18.94
2022-08-30T08:21:31.363Z,19.00
2022-08-30T08:23:57.779Z,19.36
2022-08-30T08:26:24.253Z,19.46
2022-08-30T08:28:50.712Z,19.47
2022-08-30T08:31:23.592Z,19.44
2022-08-30T08:33:55.109Z,19.48
2022-08-30T08:36:21.824Z,19.69
2022-08-30T08:38:48.236Z,19.69
2022-08-30T08:41:36.871Z,20.07
2022-08-30T08:44:55.295Z,19.95
2022-08-30T08:47:26.234Z,20.38
2022-08-30T08:49:58.727Z,20.37
2022-08-30T08:52:53.322Z,20.52
2022-08-30T08:55:22.813Z,20.59
2022-08-30T08:57:49.870Z,20.80
2022-08-30T09:00:16.442Z,20.91
2022-08-30T09:02:55.890Z,21.03
2022-08-30T09:05:28.447Z,21.31
2022-08-30T09:08:17.683Z,21.48
2022-08-30T09:11:01.321Z,21.51
2022-08-30T09:13:28.212Z,21.76
2022-08-30T09:15:56.907Z,21.88
2022-08-30T09:18:48.992Z,21.72
2022-08-30T09:21:25.634Z,22.02
2022-08-30T09:23:59.590Z,22.34
2022-08-30T09:26:35.856Z,22.14
2022-08-30T09:29:02.352Z,22.24
2022-08-30T09:31:45.168Z,22.47
2022-08-30T09:34:18.467Z,22.64
2022-08-30T09:36:55.988Z,22.73
2022-08-30T09:39:33.453Z,22.60
2022-08-30T09:42:26.160Z,22.88
2022-08-30T09:44:53.840Z,22.98
2022-08-30T09:47:31.500Z,23.06
2022-08-30T09:50:12.681Z,23.19
2022-08-30T09:52:55.064Z,23.30
2022-08-30T09:55:29.076Z,23.23
2022-08-30T09:58:15.500Z,23.52
2022-08-30T10:00:52.831Z,23.53
2022-08-30T10:03:40.659Z,23.72
2022-08-30T10:06:37.432Z,23.76
2022-08-30T10:09:28.276Z,23.89
2022-08-30T10:12:11.124Z,23.90
2022-08-30T10:14:59.270Z,24.11
2022-08-30T10:17:40.268Z,24.21
2022-08-30T10:20:35.253Z,24.38
2022-08-30T10:23:23.002Z,24.57
2022-08-30T10:26:12.958Z,24.62
2022-08-30T10:28:47.939Z,24.78
2022-08-30T10:31:32.146Z,24.67
2022-08-30T10:34:08.806Z,24.75
2022-08-30T10:36:50.809Z,24.80
2022-08-30T10:39:24.278Z,24.87
2022-08-30T10:41:58.611Z,25.16
2022-08-30T10:44:31.237Z,25.11
2022-08-30T10:47:24.176Z,25.28
2022-08-30T10:49:55.654Z,25.14
2022-08-30T10:52:33.829Z,25.33
2022-08-30T10:55:11.361Z,25.38
2022-08-30T10:57:38.734Z,25.38
2022-08-30T11:00:22.456Z,25.63
2022-08-30T11:03:20.060Z,25.40
2022-08-30T11:05:57.610Z,25.61
2022-08-30T11:08:57.224Z,25.75
2022-08-30T11:11:48.608Z,25.89
2022-08-30T11:14:18.583Z,25.97
2022-08-30T11:16:48.574Z,25.94
2022-08-30T11:19:26.388Z,25.91
2022-08-30T11:22:22.540Z,25.87
2022-08-30T11:25:00.126Z,25.80
2022-08-30T11:27:48.893Z,25.85
2022-08-30T11:30:24.072Z,26.05
2022-08-30T11:33:18.437Z,25.94
2022-08-30T11:35:49.855Z,25.99
2022-08-30T11:38:43.188Z,26.19
2022-08-30T11:41:14.144Z,26.04
2022-08-30T11:43:43.714Z,26.34
2022-08-30T11:46:28.631Z,26.27
2022-08-30T11:49:13.856Z,26.20
2022-08-30T11:52:27.015Z,26.24
2022-08-30T11:55:15.944Z,26.12
2022-08-30T11:57:49.743Z,25.97
2022-08-30T12:00:34.885Z,25.87
2022-08-30T12:03:32.256Z,25.90
2022-08-30T12:06:06.903Z,25.97
2022-08-30T12:08:34.034Z,26.19
2022-08-30T12:11:10.911Z,26.23
2022-08-30T12:13:37.237Z,26.19
2022-08-30T12:16:09.487Z,26.13
2022-08-30T12:18:38.972Z,26.27
2022-08-30T12:21:22.796Z,25.65
2022-08-30T12:24:16.284Z,26.02
2022-08-30T12:26:45.314Z,26.10
2022-08-30T12:29:22.639Z,26.20
2022-08-30T12:31:53.985Z,26.19
2022-08-30T12:34:40.663Z,26.04
2022-08-30T12:37:19.305Z,25.99
2022-08-30T12:39:46.934Z,26.10
2022-08-30T12:42:31.332Z,26.20
2022-08-30T12:45:02.010Z,26.27
2022-08-30T12:47:34.537Z,26.19
2022-08-30T12:50:01.398Z,26.05
2022-08-30T12:52:29.375Z,26.36
2022-08-30T12:55:16.382Z,26.28
2022-08-30T12:58:00.673Z,26.24
2022-08-30T13:00:32.040Z,26.18
2022-08-30T13:03:01.895Z,26.15
2022-08-30T13:05:52.874Z,26.50
2022-08-30T13:08:35.735Z,26.50
2022-08-30T13:11:09.786Z,26.44
2022-08-30T13:13:37.373Z,26.31
2022-08-30T13:16:20.799Z,26.50
2022-08-30T13:18:55.890Z,26.53
2022-08-30T13:21:32.764Z,26.77
2022-08-30T13:24:02.654Z,26.71
2022-08-30T13:26:32.624Z,26.56
2022-08-30T13:29:02.011Z,26.57
2022-08-30T13:31:30.118Z,26.63
2022-08-30T13:33:57.455Z,26.62
2022-08-30T13:36:36.486Z,26.49
2022-08-30T13:39:05.166Z,26.40
2022-08-30T13:41:34.262Z,26.66
2022-08-30T13:44:16.902Z,26.61
2022-08-30T13:46:53.067Z,26.64
2022-08-30T13:49:45.085Z,26.79
2022-08-30T13:52:21.062Z,26.64
2022-08-30T13:54:57.928Z,26.85
2022-08-30T14:00:19.429Z,26.56
2022-08-30T14:02:54.903Z,26.65
2022-08-30T14:05:49.508Z,26.78
2022-08-30T14:11:15.725Z,26.79
2022-08-30T14:16:32.639Z,26.81
2022-08-30T14:19:00.596Z,26.91
2022-08-30T14:21:28.027Z,26.45
2022-08-30T14:23:56.515Z,26.71
2022-08-30T14:26:35.792Z,26.43
2022-08-30T14:29:04.939Z,26.62
2022-08-30T14:31:32.643Z,26.57
2022-08-30T14:34:00.396Z,26.63
2022-08-30T14:36:26.819Z,26.53
2022-08-30T14:38:53.339Z,26.60
2022-08-30T14:41:19.786Z,26.70
2022-08-30T14:43:46.276Z,26.44
2022-08-30T14:46:12.862Z,26.61
2022-08-30T14:48:39.562Z,26.87
2022-08-30T14:51:20.154Z,27.07
2022-08-30T14:53:48.171Z,26.92
2022-08-30T14:56:19.660Z,27.18
2022-08-30T14:58:51.888Z,27.20
2022-08-30T15:01:19.550Z,27.14
2022-08-30T15:03:46.255Z,27.09
2022-08-30T15:06:12.769Z,27.38
2022-08-30T15:08:39.980Z,27.11
2022-08-30T15:11:08.900Z,27.20
2022-08-30T15:13:35.647Z,26.99
2022-08-30T15:16:02.472Z,27.00
2022-08-30T15:18:28.892Z,26.99
2022-08-30T15:20:56.371Z,26.88
2022-08-30T15:23:24.863Z,27.02
2022-08-30T15:25:51.625Z,26.73
2022-08-30T15:28:19.104Z,26.72
2022-08-30T15:30:45.832Z,26.86
2022-08-30T15:33:12.484Z,26.72
2022-08-30T15:35:38.982Z,26.61
2022-08-30T15:38:06.214Z,26.62
2022-08-30T15:40:33.553Z,26.57
2022-08-30T15:43:03.848Z,26.89
2022-08-30T15:45:30.630Z,26.85
2022-08-30T15:48:00.466Z,26.87
2022-08-30T15:50:27.963Z,26.97
2022-08-30T15:52:54.706Z,26.78
2022-08-30T15:55:21.517Z,26.64
2022-08-30T15:57:48.181Z,26.76
2022-08-30T16:00:15.154Z,26.53
2022-08-30T16:02:41.684Z,26.42
2022-08-30T16:05:09.866Z,26.35
2022-08-30T16:07:40.398Z,26.35
2022-08-30T16:10:08.426Z,26.12
2022-08-30T16:12:34.942Z,25.97
2022-08-30T16:15:01.482Z,25.80
2022-08-30T16:17:28.548Z,25.47
2022-08-30T16:19:58.956Z,25.65
2022-08-30T16:22:26.428Z,25.57
2022-08-30T16:24:52.830Z,25.30
2022-08-30T16:27:19.489Z,25.17
2022-08-30T16:29:47.814Z,25.11
2022-08-30T16:32:16.564Z,25.10
2022-08-30T16:34:42.972Z,25.10
2022-08-30T16:37:09.486Z,25.01
2022-08-30T16:39:36.069Z,25.08
2022-08-30T16:42:03.298Z,24.84
2022-08-30T16:44:30.734Z,24.98
2022-08-30T16:46:57.491Z,24.78
2022-08-30T16:49:25.577Z,24.39
2022-08-30T16:51:52.577Z,24.37
2022-08-30T16:54:19.788Z,23.94
2022-08-30T16:56:46.330Z,24.34
2022-08-30T16:59:13.755Z,24.23
2022-08-30T17:01:42.421Z,24.06
2022-08-30T17:04:10.000Z,23.97
2022-08-30T17:06:36.764Z,23.91
2022-08-30T17:09:05.109Z,23.72
2022-08-30T17:11:32.404Z,23.42
2022-08-30T17:13:59.157Z,23.45
2022-08-30T17:16:28.087Z,23.45
2022-08-30T17:21:46.007Z,23.16
2022-08-30T17:24:12.430Z,22.77
2022-08-30T17:26:39.779Z,22.71
2022-08-30T17:29:07.806Z,22.39
2022-08-30T17:31:34.610Z,22.18
2022-08-30T17:34:04.255Z,22.01
2022-08-30T17:36:35.629Z,21.81
2022-08-30T17:39:11.408Z,21.86
2022-08-30T17:41:40.035Z,21.46
2022-08-30T17:44:12.652Z,21.46
2022-08-30T17:46:39.627Z,21.29
2022-08-30T17:49:06.320Z,21.32
2022-08-30T17:51:40.778Z,20.87
2022-08-30T17:54:08.765Z,20.80
2022-08-30T17:56:35.755Z,20.81
2022-08-30T17:59:04.843Z,20.63
2022-08-30T18:01:31.562Z,20.53
2022-08-30T18:04:02.030Z,20.45
2022-08-30T18:06:33.252Z,20.24
2022-08-30T18:09:00.828Z,20.33
2022-08-30T18:11:27.319Z,20.16
2022-08-30T18:13:53.754Z,20.14
2022-08-30T18:16:20.336Z,19.95
2022-08-30T18:18:51.521Z,19.99
2022-08-30T18:21:22.079Z,19.79
2022-08-30T18:23:49.984Z,19.56
2022-08-30T18:26:17.420Z,19.53
2022-08-30T18:28:45.051Z,19.53
2022-08-30T18:31:11.733Z,19.69
2022-08-30T18:33:38.230Z,19.80
2022-08-30T18:36:05.963Z,19.68
2022-08-30T18:38:32.676Z,19.54
2022-08-30T18:41:01.441Z,19.54
2022-08-30T18:43:30.771Z,19.22
2022-08-30T18:46:01.471Z,19.26
2022-08-30T18:48:29.802Z,18.99
2022-08-30T18:50:56.339Z,18.71
2022-08-30T18:53:29.147Z,18.59
2022-08-30T18:55:56.960Z,18.64
2022-08-30T18:58:23.403Z,18.61
2022-08-30T19:00:49.827Z,18.60
2022-08-30T19:03:18.378Z,18.93
2022-08-30T19:05:45.502Z,18.92
2022-08-30T19:08:11.977Z,18.64
2022-08-30T19:10:39.167Z,18.54
2022-08-30T19:13:06.152Z,18.49
2022-08-30T19:15:34.214Z,18.66
2022-08-30T19:18:01.344Z,18.60
2022-08-30T19:20:28.224Z,18.50
2022-08-30T19:23:08.830Z,18.43
2022-08-30T19:25:36.562Z,18.34
2022-08-30T19:28:03.274Z,18.26
2022-08-30T19:30:32.501Z,18.19
2022-08-30T19:32:59.112Z,18.43
2022-08-30T19:35:26.598Z,18.26
2022-08-30T19:37:56.940Z,18.08
2022-08-30T19:40:23.417Z,18.00
2022-08-30T19:42:52.162Z,17.91
2022-08-30T19:45:21.735Z,18.00
2022-08-30T19:47:49.219Z,17.55
2022-08-30T19:50:16.849Z,17.99
2022-08-30T19:52:44.591Z,17.72
2022-08-30T19:55:13.304Z,17.55
2022-08-30T19:57:40.089Z,17.54
2022-08-30T20:00:11.161Z,18.13
2022-08-30T20:02:38.858Z,17.72
2022-08-30T20:05:06.070Z,17.74
2022-08-30T20:07:35.384Z,17.85
2022-08-30T20:10:06.174Z,18.24
2022-08-30T20:12:34.431Z,17.84
2022-08-30T20:15:10.174Z,17.77
2022-08-30T20:18:02.049Z,17.71
2022-08-30T20:20:24.910Z,17.49
2022-08-30T20:22:54.368Z,17.83
2022-08-30T20:24:25.071Z,23.29
2022-08-30T20:25:21.480Z,17.60
2022-08-30T20:27:49.009Z,17.70
2022-08-30T20:30:17.030Z,17.61
2022-08-30T20:32:46.639Z,17.76
2022-08-30T20:35:15.992Z,17.68
2022-08-30T20:37:43.323Z,17.93
2022-08-30T20:40:14.989Z,18.18
2022-08-30T20:42:45.546Z,18.01
2022-08-30T20:45:15.560Z,17.71
2022-08-30T20:47:43.207Z,17.73
2022-08-30T20:50:15.803Z,17.71
2022-08-30T20:52:42.758Z,17.45
2022-08-30T20:55:10.078Z,17.39
2022-08-30T20:57:36.895Z,17.47
2022-08-30T21:00:07.461Z,17.60
2022-08-30T21:02:34.263Z,17.37
2022-08-30T21:05:00.891Z,17.41
2022-08-30T21:07:27.304Z,17.47
2022-08-30T21:09:54.022Z,17.23
2022-08-30T21:12:20.600Z,17.51
2022-08-30T21:14:47.011Z,17.39
2022-08-30T21:17:13.591Z,17.39
2022-08-30T21:19:43.843Z,17.42
2022-08-30T21:22:11.236Z,17.34
2022-08-30T21:24:37.681Z,17.51
2022-08-30T21:27:04.257Z,17.29
2022-08-30T21:29:33.040Z,17.35
2022-08-30T21:31:59.498Z,17.46
2022-08-30T21:34:25.963Z,17.25
2022-08-30T21:36:52.369Z,17.37
2022-08-30T21:39:22.292Z,17.57
2022-08-30T21:41:52.961Z,17.56
2022-08-30T21:44:21.769Z,17.51
2022-08-30T21:46:50.629Z,17.43
2022-08-30T21:49:19.559Z,17.43
2022-08-30T21:51:47.570Z,17.59
2022-08-30T21:54:15.650Z,17.39
2022-08-30T21:56:44.987Z,17.61
2022-08-30T21:59:12.371Z,17.87
2022-08-30T22:01:40.880Z,17.96
2022-08-30T22:04:10.022Z,17.81
2022-08-30T22:06:38.632Z,17.64
2022-08-30T22:09:08.362Z,17.47
2022-08-30T22:11:35.356Z,17.55
2022-08-30T22:14:02.402Z,17.53
2022-08-30T22:16:30.040Z,17.41
2022-08-30T22:18:56.930Z,17.42
2022-08-30T22:21:26.182Z,17.48
2022-08-30T22:23:53.127Z,17.60
2022-08-30T22:26:21.497Z,17.29
2022-08-30T22:28:48.501Z,17.51
2022-08-30T22:31:16.254Z,17.33
2022-08-30T22:33:44.226Z,17.35
2022-08-30T22:36:14.092Z,17.54
2022-08-30T22:38:41.350Z,17.59
2022-08-30T22:41:10.026Z,17.49
2022-08-30T22:43:36.588Z,17.34
2022-08-30T22:46:03.231Z,17.46
2022-08-30T22:48:29.707Z,17.47
2022-08-30T22:50:56.132Z,17.36
2022-08-30T22:53:22.564Z,17.62
2022-08-30T22:55:48.996Z,17.61
2022-08-30T22:58:18.840Z,17.37
2022-08-30T23:00:54.426Z,17.33
2022-08-30T23:03:21.660Z,17.35
2022-08-30T23:05:48.072Z,17.22
2022-08-30T23:08:14.476Z,17.27
2022-08-30T23:10:41.083Z,17.14
2022-08-30T23:13:08.006Z,17.18
2022-08-30T23:15:34.582Z,16.98
2022-08-30T23:18:01.019Z,17.19
2022-08-30T23:20:27.456Z,17.18
2022-08-30T23:22:59.708Z,17.09
2022-08-30T23:25:47.479Z,17.32
2022-08-30T23:28:38.921Z,17.32
2022-08-30T23:31:31.400Z,17.16
2022-08-30T23:34:17.081Z,17.39
2022-08-30T23:37:02.372Z,17.48
2022-08-30T23:39:47.185Z,17.38
2022-08-30T23:42:32.618Z,17.25
2022-08-30T23:45:17.392Z,17.61
2022-08-30T23:48:02.277Z,17.52
2022-08-30T23:50:47.054Z,17.83
2022-08-30T23:53:31.786Z,18.16
2022-08-30T23:56:16.537Z,17.83
2022-08-30T23:59:01.487Z,17.54
